sensor_id;sensor_type;location;lat;lon;timestamp;pressure;altitude;pressure_sealevel;temperature;humidity
19884;BME280;10104;50.732;10.174;2023-01-26T00:00:19;98540.13;;;0.99;90.53
19884;BME280;10104;50.732;10.174;2023-01-26T00:02:40;98536.69;;;0.75;91.66
19884;BME280;10104;50.732;10.174;2023-01-26T00:05:02;98536.03;;;0.84;91.19
19884;BME280;10104;50.732;10.174;2023-01-26T00:07:23;98532.06;;;0.91;91.23
19884;BME280;10104;50.732;10.174;2023-01-26T00:09:45;98521.13;;;0.86;90.88
19884;BME280;10104;50.732;10.174;2023-01-26T00:12:06;98522.78;;;0.87;91.26
19884;BME280;10104;50.732;10.174;2023-01-26T00:14:28;98517.34;;;0.90;91.06
19884;BME280;10104;50.732;10.174;2023-01-26T00:17:10;98513.41;;;1.08;90.43
19884;BME280;10104;50.732;10.174;2023-01-26T00:19:31;98511.75;;;1.18;90.01
19884;BME280;10104;50.732;10.174;2023-01-26T00:21:52;98503.47;;;1.25;89.89
19884;BME280;10104;50.732;10.174;2023-01-26T00:24:14;98500.41;;;1.31;89.89
19884;BME280;10104;50.732;10.174;2023-01-26T00:26:36;98501.25;;;1.42;89.04
19884;BME280;10104;50.732;10.174;2023-01-26T00:28:58;98503.53;;;1.36;88.69
19884;BME280;10104;50.732;10.174;2023-01-26T00:31:22;98490.34;;;1.37;88.48
19884;BME280;10104;50.732;10.174;2023-01-26T00:33:44;98492.16;;;1.48;88.11
19884;BME280;10104;50.732;10.174;2023-01-26T00:36:06;98489.28;;;1.40;88.34
19884;BME280;10104;50.732;10.174;2023-01-26T00:38:28;98491.47;;;1.11;88.66
19884;BME280;10104;50.732;10.174;2023-01-26T00:40:50;98491.97;;;1.16;88.62
19884;BME280;10104;50.732;10.174;2023-01-26T00:43:11;98501.53;;;1.04;89.50
19884;BME280;10104;50.732;10.174;2023-01-26T00:45:34;98492.53;;;1.08;89.70
19884;BME280;10104;50.732;10.174;2023-01-26T00:47:56;98490.88;;;1.18;89.39
19884;BME280;10104;50.732;10.174;2023-01-26T00:50:17;98494.59;;;1.27;88.90
19884;BME280;10104;50.732;10.174;2023-01-26T00:52:39;98492.47;;;1.32;88.07
19884;BME280;10104;50.732;10.174;2023-01-26T00:55:00;98499.16;;;1.12;88.38
19884;BME280;10104;50.732;10.174;2023-01-26T00:57:22;98495.19;;;0.85;89.88
19884;BME280;10104;50.732;10.174;2023-01-26T00:59:43;98495.22;;;0.96;90.41
19884;BME280;10104;50.732;10.174;2023-01-26T01:02:05;98489.00;;;1.09;89.35
19884;BME280;10104;50.732;10.174;2023-01-26T01:04:27;98490.09;;;0.94;90.04
19884;BME280;10104;50.732;10.174;2023-01-26T01:06:50;98485.84;;;0.93;90.40
19884;BME280;10104;50.732;10.174;2023-01-26T01:09:12;98476.50;;;1.02;89.91
19884;BME280;10104;50.732;10.174;2023-01-26T01:11:33;98484.28;;;1.26;88.93
19884;BME280;10104;50.732;10.174;2023-01-26T01:13:56;98476.50;;;1.48;86.41
19884;BME280;10104;50.732;10.174;2023-01-26T01:16:17;98481.72;;;1.48;86.70
19884;BME280;10104;50.732;10.174;2023-01-26T01:18:39;98476.72;;;1.45;87.03
19884;BME280;10104;50.732;10.174;2023-01-26T01:21:05;98475.88;;;1.44;86.58
19884;BME280;10104;50.732;10.174;2023-01-26T01:23:27;98476.00;;;1.43;87.52
19884;BME280;10104;50.732;10.174;2023-01-26T01:25:56;98473.19;;;1.57;86.12
19884;BME280;10104;50.732;10.174;2023-01-26T01:28:18;98474.84;;;1.58;85.77
19884;BME280;10104;50.732;10.174;2023-01-26T01:30:39;98466.66;;;1.74;84.59
19884;BME280;10104;50.732;10.174;2023-01-26T01:33:02;98475.22;;;1.76;84.46
19884;BME280;10104;50.732;10.174;2023-01-26T01:35:24;98471.28;;;1.81;83.81
19884;BME280;10104;50.732;10.174;2023-01-26T01:37:46;98476.72;;;1.67;84.87
19884;BME280;10104;50.732;10.174;2023-01-26T01:40:11;98476.63;;;1.57;85.64
19884;BME280;10104;50.732;10.174;2023-01-26T01:42:33;98476.88;;;1.66;85.78
19884;BME280;10104;50.732;10.174;2023-01-26T01:45:35;98477.09;;;1.62;85.11
19884;BME280;10104;50.732;10.174;2023-01-26T01:48:02;98480.19;;;1.68;85.38
19884;BME280;10104;50.732;10.174;2023-01-26T01:50:26;98479.59;;;1.64;85.72
19884;BME280;10104;50.732;10.174;2023-01-26T01:52:48;98474.97;;;1.68;86.04
19884;BME280;10104;50.732;10.174;2023-01-26T01:55:11;98477.47;;;1.69;85.94
19884;BME280;10104;50.732;10.174;2023-01-26T01:57:41;98473.06;;;1.70;85.72
19884;BME280;10104;50.732;10.174;2023-01-26T02:00:08;98473.31;;;1.67;85.78
19884;BME280;10104;50.732;10.174;2023-01-26T02:02:30;98473.53;;;1.63;85.88
19884;BME280;10104;50.732;10.174;2023-01-26T02:04:53;98461.22;;;1.66;85.98
19884;BME280;10104;50.732;10.174;2023-01-26T02:07:17;98461.94;;;1.79;84.92
19884;BME280;10104;50.732;10.174;2023-01-26T02:09:40;98459.91;;;1.71;85.48
19884;BME280;10104;50.732;10.174;2023-01-26T02:12:25;98446.03;;;1.71;85.67
19884;BME280;10104;50.732;10.174;2023-01-26T02:14:49;98437.47;;;1.80;85.57
19884;BME280;10104;50.732;10.174;2023-01-26T02:17:12;98437.34;;;1.70;85.38
19884;BME280;10104;50.732;10.174;2023-01-26T02:19:42;98432.63;;;1.64;85.86
19884;BME280;10104;50.732;10.174;2023-01-26T02:22:10;98440.69;;;1.72;85.84
19884;BME280;10104;50.732;10.174;2023-01-26T02:24:37;98429.16;;;1.75;85.47
19884;BME280;10104;50.732;10.174;2023-01-26T02:27:00;98426.09;;;1.58;85.98
19884;BME280;10104;50.732;10.174;2023-01-26T02:29:22;98423.00;;;1.42;86.93
19884;BME280;10104;50.732;10.174;2023-01-26T02:31:44;98416.25;;;1.29;87.76
19884;BME280;10104;50.732;10.174;2023-01-26T02:34:06;98409.56;;;1.13;88.65
19884;BME280;10104;50.732;10.174;2023-01-26T02:36:30;98406.25;;;1.11;88.78
19884;BME280;10104;50.732;10.174;2023-01-26T02:39:10;98413.34;;;0.98;89.88
19884;BME280;10104;50.732;10.174;2023-01-26T02:41:36;98418.66;;;0.86;90.99
19884;BME280;10104;50.732;10.174;2023-01-26T02:44:28;98405.94;;;0.81;91.05
19884;BME280;10104;50.732;10.174;2023-01-26T02:46:52;98397.34;;;0.92;90.78
19884;BME280;10104;50.732;10.174;2023-01-26T02:49:14;98397.84;;;1.08;90.44
19884;BME280;10104;50.732;10.174;2023-01-26T02:51:54;98391.91;;;1.06;90.01
19884;BME280;10104;50.732;10.174;2023-01-26T02:54:15;98402.03;;;0.87;91.00
19884;BME280;10104;50.732;10.174;2023-01-26T02:56:55;98395.78;;;0.89;91.41
19884;BME280;10104;50.732;10.174;2023-01-26T02:59:17;98394.69;;;0.80;91.03
19884;BME280;10104;50.732;10.174;2023-01-26T03:01:38;98391.47;;;0.66;91.92
19884;BME280;10104;50.732;10.174;2023-01-26T03:04:00;98387.53;;;0.60;92.75
19884;BME280;10104;50.732;10.174;2023-01-26T03:06:21;98383.00;;;0.51;93.02
19884;BME280;10104;50.732;10.174;2023-01-26T03:08:43;98383.56;;;0.44;93.97
19884;BME280;10104;50.732;10.174;2023-01-26T03:11:05;98386.50;;;0.39;94.16
19884;BME280;10104;50.732;10.174;2023-01-26T03:13:27;98387.34;;;0.39;94.76
19884;BME280;10104;50.732;10.174;2023-01-26T03:15:48;98380.91;;;0.32;95.40
19884;BME280;10104;50.732;10.174;2023-01-26T03:18:16;98371.00;;;0.14;95.37
19884;BME280;10104;50.732;10.174;2023-01-26T03:20:58;98378.41;;;0.07;95.50
19884;BME280;10104;50.732;10.174;2023-01-26T03:23:38;98375.22;;;0.04;96.49
19884;BME280;10104;50.732;10.174;2023-01-26T03:26:18;98371.19;;;-0.01;97.52
19884;BME280;10104;50.732;10.174;2023-01-26T03:28:58;98363.84;;;0.28;95.84
19884;BME280;10104;50.732;10.174;2023-01-26T03:31:19;98374.28;;;0.28;95.18
19884;BME280;10104;50.732;10.174;2023-01-26T03:33:41;98368.34;;;0.26;96.01
19884;BME280;10104;50.732;10.174;2023-01-26T03:36:02;98368.81;;;0.31;95.34
19884;BME280;10104;50.732;10.174;2023-01-26T03:38:24;98361.16;;;0.30;95.48
19884;BME280;10104;50.732;10.174;2023-01-26T03:40:45;98364.31;;;0.22;95.57
19884;BME280;10104;50.732;10.174;2023-01-26T03:43:26;98360.72;;;0.12;96.88
19884;BME280;10104;50.732;10.174;2023-01-26T03:46:06;98358.22;;;0.11;96.71
19884;BME280;10104;50.732;10.174;2023-01-26T03:48:50;98358.03;;;0.25;96.01
19884;BME280;10104;50.732;10.174;2023-01-26T03:52:07;98361.69;;;0.22;95.87
19884;BME280;10104;50.732;10.174;2023-01-26T03:55:13;98360.03;;;0.21;95.54
19884;BME280;10104;50.732;10.174;2023-01-26T03:58:03;98363.81;;;0.17;96.30
19884;BME280;10104;50.732;10.174;2023-01-26T04:00:30;98355.72;;;0.09;96.62
19884;BME280;10104;50.732;10.174;2023-01-26T04:02:51;98356.81;;;-0.06;97.24
19884;BME280;10104;50.732;10.174;2023-01-26T04:05:31;98363.88;;;-0.19;97.67
19884;BME280;10104;50.732;10.174;2023-01-26T04:08:11;98361.81;;;-0.27;98.49
19884;BME280;10104;50.732;10.174;2023-01-26T04:10:45;98363.72;;;-0.42;99.54
19884;BME280;10104;50.732;10.174;2023-01-26T04:13:06;98358.03;;;-0.23;98.69
19884;BME280;10104;50.732;10.174;2023-01-26T04:15:47;98362.41;;;-0.23;97.98
19884;BME280;10104;50.732;10.174;2023-01-26T04:18:27;98365.38;;;-0.41;98.95
19884;BME280;10104;50.732;10.174;2023-01-26T04:21:07;98365.19;;;-0.50;99.89
19884;BME280;10104;50.732;10.174;2023-01-26T04:23:51;98368.63;;;-0.50;99.96
19884;BME280;10104;50.732;10.174;2023-01-26T04:26:15;98365.41;;;-0.53;99.82
19884;BME280;10104;50.732;10.174;2023-01-26T04:28:36;98370.31;;;-0.74;100.00
19884;BME280;10104;50.732;10.174;2023-01-26T04:30:58;98360.22;;;-0.66;100.00
19884;BME280;10104;50.732;10.174;2023-01-26T04:33:20;98364.59;;;-0.79;100.00
19884;BME280;10104;50.732;10.174;2023-01-26T04:35:42;98360.13;;;-0.64;100.00
19884;BME280;10104;50.732;10.174;2023-01-26T04:38:28;98358.66;;;-0.56;99.90
19884;BME280;10104;50.732;10.174;2023-01-26T04:40:52;98362.63;;;-0.63;100.00
19884;BME280;10104;50.732;10.174;2023-01-26T04:43:14;98355.53;;;-0.61;100.00
19884;BME280;10104;50.732;10.174;2023-01-26T04:45:36;98351.28;;;-0.62;100.00
19884;BME280;10104;50.732;10.174;2023-01-26T04:47:57;98348.47;;;-0.59;99.97
19884;BME280;10104;50.732;10.174;2023-01-26T04:50:19;98342.31;;;-0.58;100.00
19884;BME280;10104;50.732;10.174;2023-01-26T04:52:41;98336.88;;;-0.42;99.03
19884;BME280;10104;50.732;10.174;2023-01-26T04:55:02;98342.56;;;-0.37;98.54
19884;BME280;10104;50.732;10.174;2023-01-26T04:57:26;98342.41;;;-0.23;97.86
19884;BME280;10104;50.732;10.174;2023-01-26T04:59:48;98340.44;;;-0.19;97.18
19884;BME280;10104;50.732;10.174;2023-01-26T05:02:09;98340.31;;;-0.18;97.09
19884;BME280;10104;50.732;10.174;2023-01-26T05:04:31;98334.13;;;-0.04;96.25
19884;BME280;10104;50.732;10.174;2023-01-26T05:06:52;98329.75;;;-0.04;95.73
19884;BME280;10104;50.732;10.174;2023-01-26T05:09:14;98333.41;;;-0.06;95.22
19884;BME280;10104;50.732;10.174;2023-01-26T05:11:35;98342.44;;;0.01;95.27
19884;BME280;10104;50.732;10.174;2023-01-26T05:13:57;98341.66;;;0.12;95.11
19884;BME280;10104;50.732;10.174;2023-01-26T05:16:18;98340.34;;;0.06;94.82
19884;BME280;10104;50.732;10.174;2023-01-26T05:18:40;98341.81;;;-0.03;94.54
19884;BME280;10104;50.732;10.174;2023-01-26T05:21:02;98337.50;;;-0.15;95.59
19884;BME280;10104;50.732;10.174;2023-01-26T05:23:25;98337.50;;;0.09;95.13
19884;BME280;10104;50.732;10.174;2023-01-26T05:25:46;98342.38;;;0.14;94.63
19884;BME280;10104;50.732;10.174;2023-01-26T05:28:07;98344.53;;;0.20;94.24
19884;BME280;10104;50.732;10.174;2023-01-26T05:30:29;98343.16;;;0.38;93.22
19884;BME280;10104;50.732;10.174;2023-01-26T05:32:51;98347.22;;;0.42;93.09
19884;BME280;10104;50.732;10.174;2023-01-26T05:35:12;98333.41;;;0.18;93.19
19884;BME280;10104;50.732;10.174;2023-01-26T05:37:34;98346.00;;;0.35;93.52
19884;BME280;10104;50.732;10.174;2023-01-26T05:39:55;98343.25;;;0.25;93.33
19884;BME280;10104;50.732;10.174;2023-01-26T05:42:17;98339.91;;;0.12;93.27
19884;BME280;10104;50.732;10.174;2023-01-26T05:44:38;98340.78;;;0.00;94.06
19884;BME280;10104;50.732;10.174;2023-01-26T05:47:00;98344.78;;;-0.07;94.18
19884;BME280;10104;50.732;10.174;2023-01-26T05:49:21;98352.28;;;-0.15;95.14
19884;BME280;10104;50.732;10.174;2023-01-26T05:51:43;98355.94;;;-0.18;95.58
19884;BME280;10104;50.732;10.174;2023-01-26T05:54:04;98360.72;;;-0.24;95.80
19884;BME280;10104;50.732;10.174;2023-01-26T05:56:26;98357.97;;;-0.34;96.71
19884;BME280;10104;50.732;10.174;2023-01-26T05:58:47;98360.78;;;-0.37;96.92
19884;BME280;10104;50.732;10.174;2023-01-26T06:01:09;98355.91;;;-0.42;97.51
19884;BME280;10104;50.732;10.174;2023-01-26T06:03:30;98355.22;;;-0.56;98.02
19884;BME280;10104;50.732;10.174;2023-01-26T06:05:53;98361.88;;;-0.52;98.71
19884;BME280;10104;50.732;10.174;2023-01-26T06:08:15;98358.97;;;-0.60;99.12
19884;BME280;10104;50.732;10.174;2023-01-26T06:10:36;98352.75;;;-0.70;99.27
19884;BME280;10104;50.732;10.174;2023-01-26T06:12:59;98353.69;;;-0.71;100.00
19884;BME280;10104;50.732;10.174;2023-01-26T06:15:20;98354.66;;;-0.49;98.95
19884;BME280;10104;50.732;10.174;2023-01-26T06:17:42;98358.97;;;-0.60;98.58
19884;BME280;10104;50.732;10.174;2023-01-26T06:20:05;98359.59;;;-0.57;98.60
19884;BME280;10104;50.732;10.174;2023-01-26T06:22:26;98357.94;;;-0.58;99.02
19884;BME280;10104;50.732;10.174;2023-01-26T06:24:48;98365.00;;;-0.72;99.55
19884;BME280;10104;50.732;10.174;2023-01-26T06:27:26;98370.28;;;-0.61;99.03
19884;BME280;10104;50.732;10.174;2023-01-26T06:29:49;98365.00;;;-0.72;99.52
19884;BME280;10104;50.732;10.174;2023-01-26T06:32:12;98370.13;;;-0.84;99.30
19884;BME280;10104;50.732;10.174;2023-01-26T06:34:33;98372.94;;;-0.87;100.00
19884;BME280;10104;50.732;10.174;2023-01-26T06:36:55;98373.25;;;-0.78;100.00
19884;BME280;10104;50.732;10.174;2023-01-26T06:39:17;98373.66;;;-0.72;99.46
19884;BME280;10104;50.732;10.174;2023-01-26T06:41:54;98381.00;;;-0.53;98.71
19884;BME280;10104;50.732;10.174;2023-01-26T06:44:15;98366.47;;;-0.56;98.64
19884;BME280;10104;50.732;10.174;2023-01-26T06:46:38;98376.44;;;-0.50;98.75
19884;BME280;10104;50.732;10.174;2023-01-26T06:49:03;98376.78;;;-0.30;98.05
19884;BME280;10104;50.732;10.174;2023-01-26T06:54:04;98373.78;;;-0.37;96.96
19884;BME280;10104;50.732;10.174;2023-01-26T06:56:25;98373.59;;;-0.47;96.75
19884;BME280;10104;50.732;10.174;2023-01-26T06:58:49;98368.53;;;-0.61;97.89
19884;BME280;10104;50.732;10.174;2023-01-26T07:01:17;98376.97;;;-0.70;98.30
19884;BME280;10104;50.732;10.174;2023-01-26T07:03:38;98381.66;;;-0.75;98.97
19884;BME280;10104;50.732;10.174;2023-01-26T07:06:00;98363.22;;;-0.59;98.61
19884;BME280;10104;50.732;10.174;2023-01-26T07:08:21;98372.63;;;-0.82;98.91
19884;BME280;10104;50.732;10.174;2023-01-26T07:10:43;98374.59;;;-0.86;99.43
19884;BME280;10104;50.732;10.174;2023-01-26T07:13:05;98373.56;;;-0.83;99.99
19884;BME280;10104;50.732;10.174;2023-01-26T07:15:26;98378.53;;;-0.80;99.88
19884;BME280;10104;50.732;10.174;2023-01-26T07:17:48;98373.34;;;-0.80;99.74
19884;BME280;10104;50.732;10.174;2023-01-26T07:20:09;98374.88;;;-0.65;98.69
19884;BME280;10104;50.732;10.174;2023-01-26T07:22:31;98373.53;;;-0.70;99.02
19884;BME280;10104;50.732;10.174;2023-01-26T07:24:53;98374.81;;;-0.76;99.27
19884;BME280;10104;50.732;10.174;2023-01-26T07:27:14;98382.69;;;-0.77;98.92
19884;BME280;10104;50.732;10.174;2023-01-26T07:29:36;98380.28;;;-0.68;99.20
19884;BME280;10104;50.732;10.174;2023-01-26T07:32:25;98377.38;;;-0.63;98.35
19884;BME280;10104;50.732;10.174;2023-01-26T07:34:56;98386.03;;;-0.75;98.87
19884;BME280;10104;50.732;10.174;2023-01-26T07:37:19;98379.59;;;-0.70;98.73
19884;BME280;10104;50.732;10.174;2023-01-26T07:39:44;98383.72;;;-0.67;98.50
19884;BME280;10104;50.732;10.174;2023-01-26T07:42:23;98382.69;;;-0.77;99.08
19884;BME280;10104;50.732;10.174;2023-01-26T07:44:44;98387.91;;;-0.77;99.49
19884;BME280;10104;50.732;10.174;2023-01-26T07:47:06;98389.75;;;-0.79;99.18
19884;BME280;10104;50.732;10.174;2023-01-26T07:49:27;98398.28;;;-0.65;98.19
19884;BME280;10104;50.732;10.174;2023-01-26T07:51:49;98399.53;;;-0.70;98.35
19884;BME280;10104;50.732;10.174;2023-01-26T07:54:13;98393.59;;;-0.72;98.21
19884;BME280;10104;50.732;10.174;2023-01-26T07:56:34;98392.69;;;-0.71;98.13
19884;BME280;10104;50.732;10.174;2023-01-26T07:58:56;98395.19;;;-0.83;98.57
19884;BME280;10104;50.732;10.174;2023-01-26T08:01:18;98401.13;;;-0.80;98.58
19884;BME280;10104;50.732;10.174;2023-01-26T08:03:39;98400.28;;;-0.81;97.97
19884;BME280;10104;50.732;10.174;2023-01-26T08:06:02;98401.97;;;-0.93;98.30
19884;BME280;10104;50.732;10.174;2023-01-26T08:08:23;98407.25;;;-0.94;98.26
19884;BME280;10104;50.732;10.174;2023-01-26T08:10:45;98402.56;;;-0.89;98.10
19884;BME280;10104;50.732;10.174;2023-01-26T08:13:07;98399.22;;;-0.91;98.19
19884;BME280;10104;50.732;10.174;2023-01-26T08:15:28;98397.03;;;-0.85;97.55
19884;BME280;10104;50.732;10.174;2023-01-26T08:17:52;98409.53;;;-1.02;98.44
19884;BME280;10104;50.732;10.174;2023-01-26T08:20:15;98399.03;;;-1.13;98.79
19884;BME280;10104;50.732;10.174;2023-01-26T08:22:36;98399.34;;;-1.05;97.73
19884;BME280;10104;50.732;10.174;2023-01-26T08:24:58;98404.75;;;-1.08;97.87
19884;BME280;10104;50.732;10.174;2023-01-26T08:27:19;98413.97;;;-1.04;97.92
19884;BME280;10104;50.732;10.174;2023-01-26T08:29:41;98412.97;;;-1.02;97.62
19884;BME280;10104;50.732;10.174;2023-01-26T08:32:02;98415.56;;;-0.89;97.25
19884;BME280;10104;50.732;10.174;2023-01-26T08:34:24;98414.72;;;-0.77;96.47
19884;BME280;10104;50.732;10.174;2023-01-26T08:36:47;98411.91;;;-0.74;95.84
19884;BME280;10104;50.732;10.174;2023-01-26T08:39:08;98410.03;;;-0.72;95.30
19884;BME280;10104;50.732;10.174;2023-01-26T08:41:30;98407.97;;;-0.79;95.54
19884;BME280;10104;50.732;10.174;2023-01-26T08:43:53;98405.50;;;-0.81;96.05
19884;BME280;10104;50.732;10.174;2023-01-26T08:46:15;98407.94;;;-0.67;95.18
19884;BME280;10104;50.732;10.174;2023-01-26T08:48:36;98395.88;;;-0.55;94.99
19884;BME280;10104;50.732;10.174;2023-01-26T08:51:00;98406.19;;;-0.54;95.48
19884;BME280;10104;50.732;10.174;2023-01-26T08:53:23;98399.00;;;-0.37;95.06
19884;BME280;10104;50.732;10.174;2023-01-26T08:55:45;98408.31;;;-0.22;92.93
19884;BME280;10104;50.732;10.174;2023-01-26T08:58:06;98414.25;;;-0.33;93.10
19884;BME280;10104;50.732;10.174;2023-01-26T09:00:28;98416.88;;;-0.33;93.23
19884;BME280;10104;50.732;10.174;2023-01-26T09:02:57;98416.13;;;-0.35;93.66
19884;BME280;10104;50.732;10.174;2023-01-26T09:05:18;98417.19;;;-0.37;93.48
19884;BME280;10104;50.732;10.174;2023-01-26T09:07:40;98412.56;;;-0.21;91.49
19884;BME280;10104;50.732;10.174;2023-01-26T09:10:01;98419.25;;;-0.43;92.10
19884;BME280;10104;50.732;10.174;2023-01-26T09:12:23;98422.41;;;-0.37;92.19
19884;BME280;10104;50.732;10.174;2023-01-26T09:14:45;98431.06;;;-0.62;93.25
19884;BME280;10104;50.732;10.174;2023-01-26T09:17:06;98430.09;;;-0.61;93.06
19884;BME280;10104;50.732;10.174;2023-01-26T09:19:27;98428.34;;;-0.61;93.64
19884;BME280;10104;50.732;10.174;2023-01-26T09:21:54;98433.75;;;-0.64;94.89
19884;BME280;10104;50.732;10.174;2023-01-26T09:24:16;98437.88;;;-0.49;94.64
19884;BME280;10104;50.732;10.174;2023-01-26T09:26:37;98426.59;;;-0.11;93.11
19884;BME280;10104;50.732;10.174;2023-01-26T09:28:59;98422.72;;;-0.06;92.79
19884;BME280;10104;50.732;10.174;2023-01-26T09:31:20;98425.88;;;-0.13;91.81
19884;BME280;10104;50.732;10.174;2023-01-26T09:33:42;98419.59;;;-0.11;92.40
19884;BME280;10104;50.732;10.174;2023-01-26T09:36:08;98420.44;;;-0.10;91.63
19884;BME280;10104;50.732;10.174;2023-01-26T09:38:30;98417.25;;;-0.14;90.96
19884;BME280;10104;50.732;10.174;2023-01-26T09:44:07;98414.41;;;-0.11;90.92
19884;BME280;10104;50.732;10.174;2023-01-26T09:47:10;98415.56;;;-0.15;90.98
19884;BME280;10104;50.732;10.174;2023-01-26T09:49:55;98415.56;;;-0.15;91.33
19884;BME280;10104;50.732;10.174;2023-01-26T09:52:34;98418.69;;;-0.10;88.66
19884;BME280;10104;50.732;10.174;2023-01-26T09:55:01;98412.56;;;-0.21;89.55
19884;BME280;10104;50.732;10.174;2023-01-26T09:57:58;98413.06;;;-0.16;89.71
19884;BME280;10104;50.732;10.174;2023-01-26T10:06:51;98401.78;;;-0.04;88.85
19884;BME280;10104;50.732;10.174;2023-01-26T10:09:23;98402.09;;;0.04;88.82
19884;BME280;10104;50.732;10.174;2023-01-26T10:11:50;98401.66;;;0.10;87.72
19884;BME280;10104;50.732;10.174;2023-01-26T10:14:29;98399.63;;;0.14;87.24
19884;BME280;10104;50.732;10.174;2023-01-26T10:16:52;98395.59;;;0.10;87.11
19884;BME280;10104;50.732;10.174;2023-01-26T10:19:31;98388.72;;;0.09;86.89
19884;BME280;10104;50.732;10.174;2023-01-26T10:21:56;98389.28;;;0.01;86.55
19884;BME280;10104;50.732;10.174;2023-01-26T10:24:22;98389.28;;;0.01;86.53
19884;BME280;10104;50.732;10.174;2023-01-26T10:26:58;98399.75;;;-0.24;87.09
19884;BME280;10104;50.732;10.174;2023-01-26T10:29:20;98387.47;;;-0.22;87.30
19884;BME280;10104;50.732;10.174;2023-01-26T10:31:43;98382.28;;;-0.22;88.23
19884;BME280;10104;50.732;10.174;2023-01-26T10:34:17;98381.00;;;-0.17;88.43
19884;BME280;10104;50.732;10.174;2023-01-26T10:36:43;98387.31;;;0.05;88.47
19884;BME280;10104;50.732;10.174;2023-01-26T10:39:06;98386.28;;;-0.06;88.72
19884;BME280;10104;50.732;10.174;2023-01-26T10:41:30;98388.72;;;0.09;87.26
19884;BME280;10104;50.732;10.174;2023-01-26T10:43:58;98376.16;;;0.03;87.43
19884;BME280;10104;50.732;10.174;2023-01-26T10:48:53;98371.72;;;0.16;87.85
19884;BME280;10104;50.732;10.174;2023-01-26T10:51:22;98373.44;;;0.04;88.14
19884;BME280;10104;50.732;10.174;2023-01-26T10:53:44;98379.75;;;-0.11;89.71
19884;BME280;10104;50.732;10.174;2023-01-26T10:56:12;98379.44;;;-0.07;89.88
19884;BME280;10104;50.732;10.174;2023-01-26T10:58:48;98373.91;;;-0.02;88.53
19884;BME280;10104;50.732;10.174;2023-01-26T11:01:11;98366.25;;;0.08;87.55
19884;BME280;10104;50.732;10.174;2023-01-26T11:03:39;98361.41;;;0.14;87.60
19884;BME280;10104;50.732;10.174;2023-01-26T11:06:16;98356.41;;;0.24;86.01
19884;BME280;10104;50.732;10.174;2023-01-26T11:08:38;98355.19;;;0.17;86.70
19884;BME280;10104;50.732;10.174;2023-01-26T11:10:59;98351.63;;;0.18;86.80
19884;BME280;10104;50.732;10.174;2023-01-26T11:13:21;98348.44;;;0.25;86.26
19884;BME280;10104;50.732;10.174;2023-01-26T11:15:47;98342.72;;;0.09;87.17
19884;BME280;10104;50.732;10.174;2023-01-26T11:18:28;98342.44;;;0.01;87.33
19884;BME280;10104;50.732;10.174;2023-01-26T11:21:09;98344.44;;;-0.03;88.69
19884;BME280;10104;50.732;10.174;2023-01-26T11:24:09;98346.69;;;-0.22;90.62
19884;BME280;10104;50.732;10.174;2023-01-26T11:27:02;98339.38;;;-0.17;89.51
19884;BME280;10104;50.732;10.174;2023-01-26T11:32:05;98352.94;;;-0.24;89.33
19884;BME280;10104;50.732;10.174;2023-01-26T11:37:35;98343.72;;;-0.41;90.80
19884;BME280;10104;50.732;10.174;2023-01-26T11:40:20;98334.69;;;-0.48;89.98
19884;BME280;10104;50.732;10.174;2023-01-26T11:42:51;98332.88;;;-0.59;90.46
19884;BME280;10104;50.732;10.174;2023-01-26T11:46:00;98329.44;;;-0.72;90.57
19884;BME280;10104;50.732;10.174;2023-01-26T11:51:26;98321.91;;;-0.88;90.83
19884;BME280;10104;50.732;10.174;2023-01-26T11:54:14;98315.03;;;-0.89;90.65
19884;BME280;10104;50.732;10.174;2023-01-26T11:56:58;98318.25;;;-0.98;90.42
19884;BME280;10104;50.732;10.174;2023-01-26T11:59:33;98310.69;;;-1.01;90.29
19884;BME280;10104;50.732;10.174;2023-01-26T12:02:02;98314.81;;;-0.98;90.28
19884;BME280;10104;50.732;10.174;2023-01-26T12:04:24;98320.44;;;-1.04;90.53
19884;BME280;10104;50.732;10.174;2023-01-26T12:06:49;98315.56;;;-1.09;90.18
19884;BME280;10104;50.732;10.174;2023-01-26T12:09:31;98307.69;;;-1.20;88.69
19884;BME280;10104;50.732;10.174;2023-01-26T12:14:28;98306.75;;;-1.19;89.36
19884;BME280;10104;50.732;10.174;2023-01-26T12:22:30;98295.63;;;-1.21;87.48
19884;BME280;10104;50.732;10.174;2023-01-26T12:27:57;98294.91;;;-1.23;88.50
19884;BME280;10104;50.732;10.174;2023-01-26T12:30:33;98287.94;;;-1.10;87.84
19884;BME280;10104;50.732;10.174;2023-01-26T12:32:56;98290.00;;;-1.02;87.16
19884;BME280;10104;50.732;10.174;2023-01-26T12:35:28;98282.44;;;-1.05;86.94
19884;BME280;10104;50.732;10.174;2023-01-26T12:38:00;98290.75;;;-1.00;86.94
19884;BME280;10104;50.732;10.174;2023-01-26T12:40:56;98290.41;;;-0.96;87.21
19884;BME280;10104;50.732;10.174;2023-01-26T12:43:39;98283.84;;;-0.89;85.57
19884;BME280;10104;50.732;10.174;2023-01-26T12:46:06;98287.69;;;-0.82;85.42
19884;BME280;10104;50.732;10.174;2023-01-26T12:48:39;98283.09;;;-0.78;84.49
19884;BME280;10104;50.732;10.174;2023-01-26T12:51:09;98278.41;;;-0.73;84.57
19884;BME280;10104;50.732;10.174;2023-01-26T12:53:38;98268.31;;;-0.77;85.58
19884;BME280;10104;50.732;10.174;2023-01-26T12:56:13;98275.78;;;-0.73;86.04
19884;BME280;10104;50.732;10.174;2023-01-26T12:58:43;98277.91;;;-0.54;84.90
19884;BME280;10104;50.732;10.174;2023-01-26T13:01:09;98266.81;;;-0.56;85.14
19884;BME280;10104;50.732;10.174;2023-01-26T13:03:34;98270.25;;;-0.56;85.47
19884;BME280;10104;50.732;10.174;2023-01-26T13:10:50;98259.47;;;-0.38;84.50
19884;BME280;10104;50.732;10.174;2023-01-26T13:21:09;98255.00;;;-0.02;84.59
19884;BME280;10104;50.732;10.174;2023-01-26T13:23:44;98253.81;;;0.03;84.37
19884;BME280;10104;50.732;10.174;2023-01-26T13:26:16;98253.66;;;0.17;83.39
19884;BME280;10104;50.732;10.174;2023-01-26T13:28:38;98253.38;;;0.09;82.65
19884;BME280;10104;50.732;10.174;2023-01-26T13:31:04;98249.94;;;0.08;83.39
19884;BME280;10104;50.732;10.174;2023-01-26T13:33:27;98251.16;;;0.15;84.10
19884;BME280;10104;50.732;10.174;2023-01-26T13:35:49;98250.94;;;0.18;84.01
19884;BME280;10104;50.732;10.174;2023-01-26T13:40:49;98260.66;;;0.38;82.95